»·PEaware :: N35SL KTUS-KLVS

N35SL :: KTUS-KLVS

FLIGHT INFORMATION

Flight Status: Arrived
Operator: Privately registered:
United States
More flights under this callsign
Pilot: Thomas S. (17015)
Aircraft: Unknown
(VIPJ)
More flights by this aircraft type
Origin: KTUS Tucson Intl
United States
Destination: KLVS Las Vegas Mun
United States
More flights between these airports :: More routes between these airports
Route:
File this flight plan on PilotEdge
Remarks:
Altitude:
(Current/Filed)
17,500ft
Speed:
(Current/Filed)
0kts
Departed: 24-Oct-23 02:48 PM
Arrived: 24-Oct-23 04:17 PM
Distance/Time
Traveled:
358nm/1:29
Distance/Time
To Go:
Arrived

Flight Plot

Page will automatically refresh every two minutes.

Flight plan parsing failed; only flown route is shown


Map Options




Map Legend


Flown Route
Filed Route
Departure Airport
Arrival Airport
Navaid (VOR, NDB)
Fix

Horizontal Profiles

Position Reports

Time Latitude Longitude Heading Altitude Ground
Speed
24-Oct-23 14:26 32.125542 -110.940752 225 2574ft 0kts
24-Oct-23 14:27 32.125542 -110.940752 225 2574ft 0kts
24-Oct-23 14:28 32.125542 -110.940752 225 2574ft 0kts
24-Oct-23 14:29 32.125542 -110.940752 225 2574ft 0kts
24-Oct-23 14:30 32.125542 -110.940752 225 2574ft 0kts
24-Oct-23 14:31 32.125534 -110.940762 224 2574ft 0kts
24-Oct-23 14:32 32.125561 -110.941469 314 2574ft 3kts
24-Oct-23 14:33 32.126453 -110.942427 19 2574ft 6kts
24-Oct-23 14:34 32.127322 -110.943290 357 2570ft 5kts
24-Oct-23 14:35 32.126802 -110.945182 223 2570ft 10kts
24-Oct-23 14:36 32.124883 -110.947092 155 2574ft 10kts
24-Oct-23 14:37 32.122111 -110.943910 135 2585ft 27kts
24-Oct-23 14:38 32.117943 -110.939018 135 2602ft 19kts
24-Oct-23 14:39 32.113190 -110.933466 137 2619ft 17kts
24-Oct-23 14:40 32.109341 -110.928940 135 2628ft 20kts
24-Oct-23 14:41 32.105175 -110.924046 135 2643ft 19kts
24-Oct-23 14:42 32.102909 -110.921972 225 2651ft 6kts
24-Oct-23 14:43 32.102651 -110.922273 224 2649ft 0kts
24-Oct-23 14:44 32.102651 -110.922273 224 2649ft 0kts
24-Oct-23 14:45 32.102651 -110.922273 224 2649ft 0kts
24-Oct-23 14:46 32.102183 -110.922817 227 2647ft 1kts
24-Oct-23 14:47 32.128503 -110.954165 316 4570ft 241kts
24-Oct-23 14:48 32.178858 -111.005250 316 10528ft 250kts
24-Oct-23 14:49 32.240552 -111.037569 27 15289ft 275kts
24-Oct-23 14:50 32.253437 -110.956216 109 17918ft 329kts
24-Oct-23 14:51 32.224215 -110.845905 108 17919ft 370kts
24-Oct-23 14:52 32.192793 -110.726794 108 17944ft 386kts
24-Oct-23 14:53 32.160548 -110.604399 108 17962ft 394kts
24-Oct-23 14:54 32.160790 -110.476427 85 17986ft 401kts
24-Oct-23 14:55 32.173111 -110.345265 85 17985ft 403kts
24-Oct-23 14:56 32.185261 -110.213862 85 17994ft 404kts
24-Oct-23 14:57 32.197373 -110.082021 86 18032ft 403kts
24-Oct-23 14:58 32.209304 -109.950400 86 18046ft 404kts
24-Oct-23 14:59 32.221115 -109.818287 86 18031ft 406kts
24-Oct-23 15:00 32.232850 -109.685718 86 18035ft 406kts
24-Oct-23 15:01 32.244413 -109.553371 87 18041ft 407kts
24-Oct-23 15:02 32.255922 -109.419992 87 18048ft 409kts
24-Oct-23 15:03 32.267906 -109.285970 80 18051ft 414kts
24-Oct-23 15:04 32.342457 -109.179764 46 18076ft 427kts
24-Oct-23 15:05 32.428174 -109.081570 45 18090ft 429kts
24-Oct-23 15:06 32.513985 -108.983203 45 18104ft 430kts
24-Oct-23 15:07 32.600093 -108.884122 45 18095ft 430kts
24-Oct-23 15:08 32.686344 -108.784642 45 18111ft 429kts
24-Oct-23 15:09 32.770360 -108.684751 57 18133ft 426kts
24-Oct-23 15:10 32.753229 -108.564074 148 18148ft 393kts
24-Oct-23 15:11 32.658556 -108.587386 224 18148ft 383kts
24-Oct-23 15:12 32.651340 -108.704134 306 18139ft 413kts
24-Oct-23 15:13 32.684989 -108.821462 208 14587ft 424kts
24-Oct-23 15:14 32.730262 -108.828105 22 11881ft 319kts
24-Oct-23 15:15 32.799509 -108.776230 359 7816ft 277kts
24-Oct-23 15:16 32.868873 -108.763164 22 8508ft 269kts
24-Oct-23 15:17 32.946482 -108.725612 22 9306ft 321kts
24-Oct-23 15:18 33.019419 -108.664909 44 10821ft 328kts
24-Oct-23 15:19 33.063411 -108.646975 215 13387ft 271kts
24-Oct-23 15:20 33.002833 -108.648275 93 17607ft 303kts
24-Oct-23 15:21 33.045043 -108.563473 35 18166ft 334kts
24-Oct-23 15:22 33.106705 -108.475387 53 18191ft 358kts
24-Oct-23 15:23 33.171718 -108.376387 53 18207ft 406kts
24-Oct-23 15:24 33.244822 -108.264733 53 18208ft 438kts
24-Oct-23 15:25 33.321079 -108.148427 53 18183ft 449kts
24-Oct-23 15:26 33.398754 -108.030361 53 18199ft 453kts
24-Oct-23 15:27 33.475369 -107.913555 53 18194ft 421kts
24-Oct-23 15:28 33.521369 -107.796721 43 18191ft 384kts
24-Oct-23 15:29 33.599485 -107.713074 45 18175ft 371kts
24-Oct-23 15:30 33.672184 -107.626481 45 18172ft 366kts
24-Oct-23 15:31 33.744195 -107.540376 45 18177ft 363kts
24-Oct-23 15:32 33.815719 -107.454614 45 18164ft 363kts
24-Oct-23 15:33 33.887290 -107.368596 45 18050ft 365kts
24-Oct-23 15:34 33.959143 -107.281942 46 18038ft 364kts
24-Oct-23 15:35 34.030863 -107.195310 46 18029ft 364kts
24-Oct-23 15:36 34.102202 -107.108874 45 18026ft 364kts
24-Oct-23 15:37 34.173672 -107.022153 46 18016ft 362kts
24-Oct-23 15:38 34.244578 -106.935789 46 18034ft 361kts
24-Oct-23 15:39 34.315330 -106.849439 46 18039ft 362kts
24-Oct-23 15:40 34.385940 -106.762020 46 18048ft 362kts
24-Oct-23 15:41 34.456029 -106.674552 47 18060ft 361kts
24-Oct-23 15:42 34.525960 -106.586979 47 18067ft 362kts
24-Oct-23 15:43 34.596177 -106.498871 47 18072ft 363kts
24-Oct-23 15:44 34.666479 -106.410448 47 18062ft 364kts
24-Oct-23 15:45 34.736727 -106.321820 47 18065ft 364kts
24-Oct-23 15:46 34.807156 -106.232695 47 18067ft 365kts
24-Oct-23 15:47 34.884339 -106.135112 48 13939ft 403kts
24-Oct-23 15:48 34.932948 -106.020875 57 13942ft 368kts
24-Oct-23 15:49 34.992926 -105.922065 52 13920ft 358kts
24-Oct-23 15:50 35.058503 -105.831539 46 13924ft 356kts
24-Oct-23 15:51 35.127038 -105.744071 46 13920ft 356kts
24-Oct-23 15:52 35.195527 -105.656337 46 13926ft 356kts
24-Oct-23 15:53 35.265034 -105.564533 49 12025ft 390kts
24-Oct-23 15:54 35.335706 -105.468312 46 11786ft 369kts
24-Oct-23 15:55 35.383620 -105.394399 70 11822ft 238kts
24-Oct-23 15:56 35.392659 -105.392254 83 8577ft 251kts
24-Oct-23 15:57 35.411284 -105.314189 41 8419ft 259kts
24-Oct-23 15:58 35.474817 -105.273718 20 8728ft 264kts
24-Oct-23 15:59 35.532398 -105.218738 43 9499ft 252kts
24-Oct-23 16:00 35.589882 -105.168211 31 9777ft 264kts
24-Oct-23 16:01 35.644566 -105.107216 54 9762ft 281kts
24-Oct-23 16:02 35.667825 -105.131921 215 8443ft 265kts
24-Oct-23 16:03 35.672836 -105.123205 254 7609ft 128kts
24-Oct-23 16:04 35.641554 -105.153358 219 10202ft 176kts
24-Oct-23 16:05 35.650520 -105.125675 335 10615ft 215kts
24-Oct-23 16:06 35.638447 -105.145229 95 9143ft 183kts
24-Oct-23 16:07 35.670711 -105.127258 260 7892ft 133kts
24-Oct-23 16:08 35.639359 -105.154397 206 10294ft 158kts
24-Oct-23 16:09 35.657977 -105.132700 297 10431ft 194kts
24-Oct-23 16:10 35.640277 -105.134304 68 9262ft 167kts
24-Oct-23 16:11 35.665425 -105.132930 219 7337ft 105kts
24-Oct-23 16:12 35.634927 -105.156302 184 10495ft 154kts
24-Oct-23 16:13 35.651700 -105.121923 342 9795ft 149kts
24-Oct-23 16:14 35.646660 -105.127727 45 8386ft 145kts
24-Oct-23 16:15 35.659309 -105.137953 217 6875ft 88kts
24-Oct-23 16:16 35.651651 -105.145154 293 6866ft 4kts
24-Oct-23 16:17 35.652239 -105.147197 267 6861ft 6kts
24-Oct-23 16:18 35.652401 -105.147774 0 6859ft 0kts
24-Oct-23 16:19 35.652401 -105.147774 0 6859ft 0kts
24-Oct-23 16:20 35.652401 -105.147774 0 6859ft 0kts
24-Oct-23 16:21 35.652401 -105.147774 0 6859ft 0kts

Navigation Log

Ident Type
Flight plan parsing failed, navigation log unavailable